Time;durP1;ratioP1;P1;durP2;ratioP2;P2;SDS_P1;SDS_P2;PMS_P1;PMS_P2;Temp;Humidity;BMP_temperature;BMP_pressure;BME280_temperature;BME280_humidity;BME280_pressure;Samples;Min_cycle;Max_cycle;Signal;HPM_P1;HPM_P2
2021/04/04 00:01:57;;;;;;;1.70;0.90;;;18.20;43.40;;;;;;5027872;28;20183;-79
2021/04/04 00:04:23;;;;;;;0.95;0.75;;;18.20;43.40;;;;;;5027930;28;20151;-79
2021/04/04 00:06:49;;;;;;;1.77;0.75;;;18.10;43.40;;;;;;5061091;28;20163;-79
2021/04/04 00:09:19;;;;;;;2.78;0.93;;;18.20;43.50;;;;;;5061064;28;20209;-80
2021/04/04 00:11:48;;;;;;;2.45;0.77;;;18.20;43.30;;;;;;5060845;28;20184;-79
2021/04/04 00:14:14;;;;;;;3.25;1.00;;;18.20;43.30;;;;;;5044189;28;20151;-80
2021/04/04 00:16:50;;;;;;;1.58;0.70;;;18.10;43.40;;;;;;5061086;28;20170;-79
2021/04/04 00:19:17;;;;;;;1.88;0.90;;;18.10;43.40;;;;;;5027292;28;20178;-81
2021/04/04 00:21:43;;;;;;;2.20;1.10;;;18.10;43.40;;;;;;5060827;28;20142;-80
2021/04/04 00:24:10;;;;;;;2.47;0.88;;;18.10;43.50;;;;;;5058319;28;20182;-80
2021/04/04 00:26:44;;;;;;;1.52;1.00;;;18.10;43.50;;;;;;5049519;28;20163;-80
2021/04/04 00:29:12;;;;;;;1.08;0.60;;;18.10;43.50;;;;;;5031410;28;20201;-79
2021/04/04 00:31:40;;;;;;;1.92;0.90;;;18.10;44.20;;;;;;5049782;28;20158;-80
2021/04/04 00:34:06;;;;;;;1.98;0.80;;;18.10;43.50;;;;;;5049408;28;20158;-79
2021/04/04 00:36:32;;;;;;;0.90;0.65;;;18.10;43.50;;;;;;5031616;28;20155;-80
2021/04/04 00:39:07;;;;;;;1.05;0.70;;;18.10;43.50;;;;;;5032090;28;20155;-79
2021/04/04 00:41:34;;;;;;;2.50;0.98;;;18.10;43.60;;;;;;5040455;28;20158;-79
2021/04/04 00:44:00;;;;;;;0.80;0.63;;;18.10;43.50;;;;;;5048752;28;20153;-81
2021/04/04 00:46:26;;;;;;;2.40;0.77;;;18.10;43.50;;;;;;5049040;28;20159;-80
2021/04/04 00:48:53;;;;;;;2.85;1.00;;;18.10;43.50;;;;;;5030518;28;20158;-80
2021/04/04 00:51:18;;;;;;;1.63;0.93;;;18.10;43.50;;;;;;5031161;28;20163;-80
2021/04/04 00:53:44;;;;;;;1.63;0.70;;;18.10;43.50;;;;;;5032321;28;20193;-78
2021/04/04 00:56:11;;;;;;;1.77;1.05;;;18.00;43.50;;;;;;5037613;28;20159;-80
2021/04/04 00:58:37;;;;;;;2.70;1.00;;;18.00;43.50;;;;;;5022100;28;20166;-80
2021/04/04 01:01:03;;;;;;;0.90;0.60;;;18.10;43.50;;;;;;5036504;28;20178;-80
2021/04/04 01:03:29;;;;;;;1.63;0.80;;;18.00;43.50;;;;;;5036207;28;20226;-80
2021/04/04 01:05:55;;;;;;;2.22;1.08;;;18.00;44.20;;;;;;5020852;28;20186;-80
2021/04/04 01:08:28;;;;;;;1.88;0.90;;;18.10;43.50;;;;;;5038142;28;20177;-80
2021/04/04 01:10:58;;;;;;;1.90;0.80;;;18.10;43.50;;;;;;5037855;28;20546;-79
2021/04/04 01:13:40;;;;;;;2.00;0.73;;;18.00;43.50;;;;;;5052751;28;20171;-80
2021/04/04 01:16:16;;;;;;;2.08;0.90;;;18.00;43.50;;;;;;5053080;28;20641;-79
2021/04/04 01:18:45;;;;;;;1.95;0.70;;;18.00;43.50;;;;;;5053185;28;20153;-80
2021/04/04 01:21:14;;;;;;;2.80;0.90;;;18.00;43.50;;;;;;5035601;28;20616;-80
2021/04/04 01:23:57;;;;;;;1.40;0.88;;;18.00;43.50;;;;;;5035660;28;20205;-79
2021/04/04 01:26:56;;;;;;;1.27;0.70;;;18.00;43.50;;;;;;5036001;28;20178;-80
2021/04/04 01:29:27;;;;;;;1.50;0.75;;;18.00;43.60;;;;;;5034807;28;20206;-81
2021/04/04 01:31:54;;;;;;;1.42;0.80;;;18.00;43.70;;;;;;5036597;28;20159;-80
2021/04/04 01:34:20;;;;;;;1.45;0.65;;;18.00;43.80;;;;;;5035967;28;20159;-79
2021/04/04 01:36:46;;;;;;;2.47;0.95;;;18.00;44.40;;;;;;5035987;28;20159;-80
2021/04/04 01:39:13;;;;;;;1.95;0.80;;;18.00;43.70;;;;;;5018995;28;20178;-79
2021/04/04 01:41:40;;;;;;;1.83;1.02;;;18.00;43.70;;;;;;5035931;28;20167;-79
2021/04/04 01:44:20;;;;;;;1.23;0.77;;;17.90;43.70;;;;;;5020395;28;20604;-79
2021/04/04 01:46:47;;;;;;;0.95;0.70;;;18.00;43.60;;;;;;5053266;28;20174;-79
2021/04/04 01:49:14;;;;;;;2.30;0.80;;;18.00;43.60;;;;;;5053475;28;20190;-80
2021/04/04 01:51:43;;;;;;;1.30;0.80;;;18.00;43.60;;;;;;5053216;28;20151;-79
2021/04/04 01:54:10;;;;;;;1.55;0.80;;;18.00;43.60;;;;;;5054283;28;20155;-80
2021/04/04 01:56:38;;;;;;;2.30;0.80;;;18.00;43.70;;;;;;5035372;28;20158;-79
2021/04/04 01:59:05;;;;;;;1.50;0.73;;;17.90;43.70;;;;;;5053882;28;20179;-80
2021/04/04 02:01:32;;;;;;;1.40;0.80;;;17.90;43.60;;;;;;5053171;28;20197;-79
2021/04/04 02:04:18;;;;;;;1.52;0.70;;;17.90;43.70;;;;;;5036145;28;20223;-79
2021/04/04 02:06:44;;;;;;;2.00;0.80;;;17.90;43.70;;;;;;5034458;28;20170;-80
2021/04/04 02:09:19;;;;;;;0.90;0.60;;;17.90;43.70;;;;;;5036619;28;20267;-79
2021/04/04 02:11:45;;;;;;;0.93;0.82;;;17.90;43.70;;;;;;5020064;28;20174;-79
2021/04/04 02:14:14;;;;;;;2.03;0.82;;;17.90;43.70;;;;;;5020446;28;20684;-79
2021/04/04 02:16:45;;;;;;;0.77;0.60;;;17.90;43.80;;;;;;5003981;28;20238;-79
2021/04/04 02:19:11;;;;;;;2.45;0.90;;;17.90;43.80;;;;;;5036333;28;20170;-79
2021/04/04 02:21:37;;;;;;;2.33;0.90;;;17.90;43.80;;;;;;5020356;28;20169;-80
2021/04/04 02:24:05;;;;;;;1.23;0.70;;;17.80;43.70;;;;;;5020129;28;20183;-79
2021/04/04 02:26:32;;;;;;;0.70;0.68;;;17.90;43.80;;;;;;5036033;28;20190;-79
2021/04/04 02:29:06;;;;;;;1.70;0.80;;;17.90;43.80;;;;;;5036520;28;20154;-79
2021/04/04 02:31:36;;;;;;;2.22;0.90;;;17.90;43.80;;;;;;5037281;28;20214;-79
2021/04/04 02:34:14;;;;;;;1.50;0.90;;;17.80;43.80;;;;;;5053928;28;20155;-79
2021/04/04 02:36:49;;;;;;;2.30;0.70;;;17.80;43.70;;;;;;5054246;28;20161;-79
2021/04/04 02:39:30;;;;;;;1.30;0.85;;;17.80;43.80;;;;;;5036085;28;20166;-79
2021/04/04 02:42:05;;;;;;;2.10;1.08;;;17.80;43.70;;;;;;5036826;28;20150;-79
2021/04/04 02:44:32;;;;;;;1.65;0.90;;;17.90;43.70;;;;;;5036641;28;20170;-78
2021/04/04 02:47:05;;;;;;;0.85;0.70;;;17.90;43.70;;;;;;5037392;28;20638;-79
2021/04/04 02:49:35;;;;;;;1.08;0.70;;;17.90;43.70;;;;;;5036645;28;20197;-79
2021/04/04 02:52:03;;;;;;;1.15;0.70;;;17.90;43.70;;;;;;5037716;28;20159;-80
2021/04/04 02:54:38;;;;;;;2.42;0.90;;;17.90;43.70;;;;;;5040422;28;20173;-79
2021/04/04 02:57:05;;;;;;;2.33;0.70;;;17.80;43.70;;;;;;5057941;28;20155;-79
2021/04/04 02:59:40;;;;;;;0.98;0.65;;;17.80;43.70;;;;;;5057941;28;20163;-80
2021/04/04 03:02:06;;;;;;;1.40;0.80;;;17.80;43.70;;;;;;5040939;28;20232;-79
2021/04/04 03:04:36;;;;;;;2.72;0.85;;;17.90;43.70;;;;;;5058261;28;20222;-80
2021/04/04 03:07:04;;;;;;;0.95;0.63;;;17.90;43.60;;;;;;5040824;28;20151;-79
2021/04/04 03:09:31;;;;;;;1.33;0.80;;;17.90;43.60;;;;;;5040703;28;20195;-80
2021/04/04 03:11:58;;;;;;;2.15;0.80;;;17.90;43.70;;;;;;5057587;28;20165;-79
2021/04/04 03:14:29;;;;;;;1.27;0.90;;;17.80;43.70;;;;;;5024985;28;20214;-81
2021/04/04 03:16:55;;;;;;;1.45;0.80;;;17.80;43.70;;;;;;5040500;28;20170;-79
2021/04/04 03:19:21;;;;;;;2.60;1.10;;;17.80;43.70;;;;;;5040175;28;20197;-79
2021/04/04 03:21:50;;;;;;;0.90;0.70;;;17.80;43.70;;;;;;5041155;28;20253;-79
2021/04/04 03:24:16;;;;;;;1.17;0.80;;;17.80;43.70;;;;;;5040693;28;20182;-80
2021/04/04 03:26:42;;;;;;;1.40;0.88;;;17.80;43.70;;;;;;5039696;28;20202;-80
2021/04/04 03:29:09;;;;;;;1.85;0.70;;;17.80;43.80;;;;;;5040290;28;20183;-80
2021/04/04 03:31:39;;;;;;;0.90;0.68;;;17.80;43.80;;;;;;5040542;28;20143;-80
2021/04/04 03:34:07;;;;;;;2.58;0.93;;;17.80;43.80;;;;;;5040789;28;20162;-79
2021/04/04 03:36:33;;;;;;;1.50;0.90;;;17.80;43.70;;;;;;5008034;28;20167;-80
2021/04/04 03:39:01;;;;;;;0.75;0.68;;;17.90;43.70;;;;;;5058228;28;20169;-80
2021/04/04 03:41:39;;;;;;;1.88;1.08;;;17.80;43.70;;;;;;5058173;28;20154;-80
2021/04/04 03:44:09;;;;;;;1.52;0.70;;;17.80;43.70;;;;;;5040857;28;20151;-79
2021/04/04 03:46:36;;;;;;;2.67;0.85;;;17.80;43.80;;;;;;5040540;28;20162;-79
2021/04/04 03:49:02;;;;;;;1.38;0.70;;;17.80;43.70;;;;;;5057820;28;20671;-79
2021/04/04 03:51:31;;;;;;;1.60;0.80;;;17.80;43.80;;;;;;5040746;28;20151;-79
2021/04/04 03:54:02;;;;;;;1.10;0.60;;;17.80;43.70;;;;;;5040820;28;20151;-79
2021/04/04 03:56:41;;;;;;;1.02;0.80;;;17.80;43.70;;;;;;5041390;28;20183;-80
2021/04/04 03:59:11;;;;;;;1.02;0.68;;;17.80;43.70;;;;;;5040367;28;20134;-79
2021/04/04 04:01:47;;;;;;;1.13;0.70;;;17.80;43.70;;;;;;5057238;28;20151;-78
2021/04/04 04:04:13;;;;;;;1.63;0.77;;;17.70;43.80;;;;;;5057102;28;20162;-79
2021/04/04 04:06:42;;;;;;;2.70;0.73;;;17.70;43.80;;;;;;5040128;28;20159;-79
2021/04/04 04:09:08;;;;;;;1.52;0.90;;;17.70;43.80;;;;;;5040412;28;20224;-79
2021/04/04 04:11:38;;;;;;;1.13;0.60;;;17.70;43.80;;;;;;5024054;28;20163;-80
2021/04/04 04:14:05;;;;;;;3.60;0.90;;;17.70;43.90;;;;;;5040568;28;20163;-80
2021/04/04 04:16:35;;;;;;;1.55;0.75;;;17.70;43.90;;;;;;5056674;28;20146;-80
2021/04/04 04:19:08;;;;;;;2.55;0.88;;;17.70;43.80;;;;;;5056992;28;20160;-79
2021/04/04 04:21:36;;;;;;;1.50;0.85;;;17.70;43.80;;;;;;5057841;28;20178;-80
2021/04/04 04:24:04;;;;;;;1.83;0.90;;;17.70;43.90;;;;;;5024327;28;20146;-81
2021/04/04 04:26:35;;;;;;;1.23;0.77;;;17.70;43.90;;;;;;5058089;28;20141;-79
2021/04/04 04:29:06;;;;;;;0.82;0.70;;;17.70;43.90;;;;;;5024342;28;20162;-79
2021/04/04 04:31:50;;;;;;;1.23;0.70;;;17.70;44.10;;;;;;5041106;28;20222;-79
2021/04/04 04:34:17;;;;;;;1.55;0.82;;;17.70;44.00;;;;;;5040477;28;20182;-79
2021/04/04 04:36:51;;;;;;;2.30;1.00;;;17.70;44.00;;;;;;5040475;28;20178;-79
2021/04/04 04:39:18;;;;;;;1.30;0.90;;;17.70;44.00;;;;;;5057925;28;20181;-79
2021/04/04 04:41:52;;;;;;;2.25;0.93;;;17.70;43.80;;;;;;5057985;28;20155;-79
2021/04/04 04:44:30;;;;;;;1.05;0.80;;;17.70;44.60;;;;;;5058510;28;20155;-79
2021/04/04 04:46:57;;;;;;;1.83;0.80;;;17.70;44.00;;;;;;5042773;28;20173;-78
2021/04/04 04:49:25;;;;;;;2.08;0.70;;;17.70;44.10;;;;;;5009855;28;20195;-79
2021/04/04 04:52:00;;;;;;;3.83;1.00;;;17.60;44.00;;;;;;5059217;28;20186;-82
2021/04/04 04:54:28;;;;;;;1.15;0.80;;;17.70;44.00;;;;;;5043002;28;20150;-79
2021/04/04 04:57:02;;;;;;;1.90;0.90;;;17.70;44.00;;;;;;5042156;28;20158;-79
2021/04/04 04:59:37;;;;;;;2.60;0.85;;;17.60;44.00;;;;;;5042347;28;20146;-80
2021/04/04 05:02:04;;;;;;;2.33;0.90;;;17.60;44.00;;;;;;5058631;28;20217;-80
2021/04/04 05:04:31;;;;;;;1.52;0.80;;;17.60;44.00;;;;;;5025997;28;20178;-79
2021/04/04 05:07:06;;;;;;;1.50;0.93;;;17.60;44.00;;;;;;5042044;28;20186;-80
2021/04/04 05:09:33;;;;;;;1.05;0.70;;;17.60;44.00;;;;;;5058743;28;20200;-79
2021/04/04 05:12:00;;;;;;;1.70;0.85;;;17.60;44.00;;;;;;5042625;28;20189;-78
2021/04/04 05:14:26;;;;;;;1.20;0.80;;;17.60;44.10;;;;;;5058805;28;20165;-82
2021/04/04 05:16:56;;;;;;;1.48;0.80;;;17.60;44.00;;;;;;5042322;28;20216;-79
2021/04/04 05:19:22;;;;;;;1.38;0.70;;;17.60;44.00;;;;;;5042151;28;20166;-79
2021/04/04 05:21:48;;;;;;;1.00;0.70;;;17.70;44.00;;;;;;5042440;28;20178;-79
2021/04/04 05:24:19;;;;;;;2.45;0.80;;;17.60;44.10;;;;;;5041993;28;20195;-79
2021/04/04 05:26:48;;;;;;;3.25;1.08;;;17.60;44.00;;;;;;5042281;28;20143;-79
2021/04/04 05:29:16;;;;;;;1.98;0.82;;;17.60;44.00;;;;;;5059164;28;20157;-79
2021/04/04 05:31:51;;;;;;;1.10;0.82;;;17.70;43.90;;;;;;5059238;28;20153;-79
2021/04/04 05:34:38;;;;;;;1.73;1.00;;;17.70;43.90;;;;;;5041557;28;20139;-79
2021/04/04 05:37:04;;;;;;;1.45;0.90;;;17.70;43.70;;;;;;5055436;28;20160;-79
2021/04/04 05:39:32;;;;;;;1.00;0.68;;;17.80;43.70;;;;;;5040397;28;20247;-78
2021/04/04 05:42:00;;;;;;;2.17;0.98;;;17.80;43.60;;;;;;5058035;28;20182;-79
2021/04/04 05:45:00;;;;;;;1.80;1.00;;;17.70;43.60;;;;;;5040547;28;20151;-80
2021/04/04 05:47:50;;;;;;;1.00;0.80;;;17.80;43.60;;;;;;4942464;29;20178;-79
2021/04/04 05:50:52;;;;;;;1.35;0.80;;;17.80;43.50;;;;;;4944335;29;20257;-79
2021/04/04 05:53:23;;;;;;;2.50;0.80;;;17.80;43.70;;;;;;4958518;29;20190;-78
2021/04/04 05:56:23;;;;;;;0.80;0.55;;;17.70;43.70;;;;;;4942588;29;20173;-78
2021/04/04 05:59:04;;;;;;;1.02;0.70;;;17.70;43.70;;;;;;4943240;29;20185;-79
2021/04/04 06:01:34;;;;;;;1.60;0.93;;;17.80;43.70;;;;;;4927885;29;20162;-78
2021/04/04 06:04:44;;;;;;;1.45;1.05;;;17.80;43.60;;;;;;4958540;29;20228;-79
2021/04/04 06:07:33;;;;;;;1.52;0.90;;;17.80;43.50;;;;;;4901813;29;20214;-80
2021/04/04 06:10:12;;;;;;;1.85;0.75;;;17.90;43.40;;;;;;4902346;29;20225;-81
2021/04/04 06:13:17;;;;;;;1.58;0.90;;;17.90;43.30;;;;;;4886988;29;20168;-79
2021/04/04 06:16:16;;;;;;;0.73;0.60;;;17.90;43.30;;;;;;4900856;29;20179;-78
2021/04/04 06:19:13;;;;;;;0.80;0.80;;;17.90;44.00;;;;;;4902429;29;20239;-78
2021/04/04 06:22:18;;;;;;;1.23;0.90;;;17.90;43.20;;;;;;4850187;29;20193;-78
2021/04/04 06:25:18;;;;;;;2.45;0.85;;;18.00;43.10;;;;;;4901706;29;20168;-80
2021/04/04 06:28:15;;;;;;;1.45;0.93;;;18.00;43.20;;;;;;4922804;29;20171;-79
2021/04/04 06:30:51;;;;;;;1.10;0.70;;;17.90;43.20;;;;;;4908182;29;20199;-79
2021/04/04 06:33:24;;;;;;;1.02;0.70;;;17.90;43.20;;;;;;4908343;29;20167;-78
2021/04/04 06:36:05;;;;;;;1.38;0.80;;;18.00;43.20;;;;;;4907785;29;20183;-79
2021/04/04 06:38:59;;;;;;;1.10;0.77;;;18.00;43.00;;;;;;4908237;29;20171;-79
2021/04/04 06:41:47;;;;;;;1.90;0.80;;;18.00;43.00;;;;;;4907665;29;20158;-80
2021/04/04 06:44:13;;;;;;;2.25;0.80;;;18.00;43.00;;;;;;4968211;29;20181;-79
2021/04/04 06:46:59;;;;;;;1.85;0.90;;;18.00;43.10;;;;;;4980779;29;20205;-79
2021/04/04 06:49:35;;;;;;;2.25;0.90;;;18.00;43.00;;;;;;4982177;29;20197;-80
2021/04/04 06:52:23;;;;;;;0.90;0.70;;;18.10;42.90;;;;;;4981811;29;20240;-81
2021/04/04 06:55:02;;;;;;;2.90;0.90;;;18.10;42.80;;;;;;4982477;28;20184;-80
2021/04/04 06:57:57;;;;;;;0.93;0.70;;;18.00;43.10;;;;;;4992473;28;20181;-80
2021/04/04 07:00:37;;;;;;;2.88;0.93;;;18.10;43.40;;;;;;5058978;28;20178;-80
2021/04/04 07:03:10;;;;;;;5.40;0.80;;;18.10;43.50;;;;;;5058318;28;20225;-81
2021/04/04 07:06:09;;;;;;;1.55;0.70;;;18.10;43.50;;;;;;5027456;28;20146;-81
2021/04/04 07:08:53;;;;;;;1.42;0.70;;;18.10;43.10;;;;;;4949570;29;20173;-81
2021/04/04 07:12:00;;;;;;;1.35;0.90;;;18.10;43.50;;;;;;4981525;29;20228;-80
2021/04/04 07:14:59;;;;;;;0.85;0.60;;;18.10;43.10;;;;;;4981376;29;20181;-81
2021/04/04 07:17:45;;;;;;;2.13;0.90;;;18.00;43.20;;;;;;4980404;29;20229;-79
2021/04/04 07:20:22;;;;;;;0.98;0.70;;;18.00;43.20;;;;;;4979617;29;20185;-79
2021/04/04 07:23:11;;;;;;;2.47;0.75;;;18.00;43.20;;;;;;4980092;29;20166;-80
2021/04/04 07:26:03;;;;;;;1.27;0.75;;;18.10;42.90;;;;;;4960806;29;20198;-80
2021/04/04 07:28:50;;;;;;;1.55;0.80;;;18.20;43.50;;;;;;4961216;29;20206;-80
2021/04/04 07:31:26;;;;;;;0.85;0.60;;;18.30;42.50;;;;;;5119987;23;20231;-80
2021/04/04 07:34:11;;;;;;;2.75;0.93;;;18.30;42.50;;;;;;5007086;28;20182;-81
2021/04/04 07:37:00;;;;;;;6.78;1.05;;;18.40;42.30;;;;;;5022892;28;20182;-79
2021/04/04 07:39:38;;;;;;;4.50;1.10;;;18.30;42.40;;;;;;5039783;28;20139;-79
2021/04/04 07:42:45;;;;;;;4.88;1.00;;;18.30;42.40;;;;;;5039291;28;20148;-80
2021/04/04 07:45:15;;;;;;;5.60;1.00;;;18.20;42.50;;;;;;5022335;28;20165;-79
2021/04/04 07:48:05;;;;;;;8.77;1.10;;;18.30;42.50;;;;;;5040018;28;20180;-80
2021/04/04 07:50:36;;;;;;;23.88;2.08;;;18.20;42.50;;;;;;5038664;28;20214;-80
2021/04/04 07:53:20;;;;;;;20.88;1.80;;;18.20;42.60;;;;;;5038702;28;20159;-80
2021/04/04 07:56:04;;;;;;;69.63;3.60;;;18.20;42.70;;;;;;5019440;28;20483;-80
2021/04/04 07:58:41;;;;;;;42.65;2.83;;;18.20;42.90;;;;;;5034373;28;20163;-81
2021/04/04 08:01:51;;;;;;;43.08;3.47;;;18.10;43.10;;;;;;5032101;28;20168;-81
2021/04/04 08:04:53;;;;;;;30.08;2.20;;;18.10;43.00;;;;;;5023412;28;20179;-80
2021/04/04 08:07:24;;;;;;;30.25;2.53;;;18.10;42.90;;;;;;4990713;28;20296;-81
2021/04/04 08:10:07;;;;;;;24.05;1.70;;;18.10;43.00;;;;;;4990422;28;20245;-80
2021/04/04 08:12:46;;;;;;;27.00;1.73;;;18.10;42.90;;;;;;4990616;28;20268;-80
2021/04/04 08:15:19;;;;;;;28.58;2.90;;;18.10;42.80;;;;;;4990031;28;20562;-79
2021/04/04 08:17:46;;;;;;;24.73;2.30;;;18.10;42.90;;;;;;4991850;28;20199;-80
2021/04/04 08:20:19;;;;;;;31.30;1.83;;;18.20;42.80;;;;;;4975059;28;20207;-80
2021/04/04 08:22:59;;;;;;;52.25;3.85;;;18.20;42.70;;;;;;4975352;28;20280;-80
2021/04/04 08:25:53;;;;;;;43.47;2.47;;;18.30;42.60;;;;;;4991181;28;20177;-80
2021/04/04 08:28:25;;;;;;;28.05;2.25;;;18.20;42.50;;;;;;4990498;28;20250;-80
2021/04/04 08:30:55;;;;;;;20.92;1.38;;;18.20;42.50;;;;;;4989927;28;20232;-81
2021/04/04 08:33:46;;;;;;;16.23;2.33;;;18.30;42.50;;;;;;4990306;28;20164;-79
2021/04/04 08:36:14;;;;;;;25.70;2.83;;;18.30;42.40;;;;;;4930950;29;20219;-80
2021/04/04 08:38:46;;;;;;;21.95;2.35;;;18.20;42.40;;;;;;4931424;29;20203;-80
2021/04/04 08:41:14;;;;;;;24.10;2.42;;;18.30;42.30;;;;;;4917394;29;20317;-81
2021/04/04 08:43:45;;;;;;;19.33;1.83;;;18.30;42.50;;;;;;4929484;29;20681;-81
2021/04/04 08:46:21;;;;;;;16.63;1.88;;;18.30;42.50;;;;;;4971199;29;20169;-81
2021/04/04 08:48:47;;;;;;;41.83;2.67;;;18.30;42.40;;;;;;4970593;28;20165;-81
2021/04/04 08:51:14;;;;;;;26.80;2.05;;;18.30;42.50;;;;;;4955690;29;20194;-81
2021/04/04 08:53:49;;;;;;;32.13;3.05;;;18.30;42.60;;;;;;4956588;29;20177;-81
2021/04/04 08:56:16;;;;;;;21.77;2.10;;;18.20;42.70;;;;;;4970453;29;20665;-79
2021/04/04 08:58:52;;;;;;;23.38;2.15;;;18.20;42.80;;;;;;4953908;29;20172;-80
2021/04/04 09:01:39;;;;;;;26.42;2.08;;;18.10;43.00;;;;;;4973349;29;20225;-80
2021/04/04 09:04:07;;;;;;;17.52;1.55;;;18.10;42.90;;;;;;4968147;29;20161;-80
2021/04/04 09:07:06;;;;;;;30.23;2.40;;;18.20;42.90;;;;;;4972075;29;20185;-78
2021/04/04 09:09:40;;;;;;;21.98;1.90;;;18.20;42.90;;;;;;4974112;29;20258;-79
2021/04/04 09:12:06;;;;;;;24.35;1.80;;;18.20;42.70;;;;;;4959243;28;20527;-80
2021/04/04 09:14:41;;;;;;;25.23;1.83;;;18.30;43.50;;;;;;5028694;28;20232;-80
2021/04/04 09:17:17;;;;;;;18.35;1.90;;;18.30;43.20;;;;;;5030210;28;20159;-80
2021/04/04 09:19:47;;;;;;;19.95;1.95;;;18.20;42.70;;;;;;5010008;28;20194;-78
2021/04/04 09:22:20;;;;;;;19.13;1.70;;;18.20;42.70;;;;;;5009551;28;20167;-79
2021/04/04 09:25:06;;;;;;;18.45;2.08;;;18.30;42.60;;;;;;5026585;28;20179;-79
2021/04/04 09:27:50;;;;;;;12.10;1.77;;;18.20;42.60;;;;;;5027343;28;20210;-80
2021/04/04 09:30:22;;;;;;;19.13;1.63;;;18.20;42.70;;;;;;5025247;28;20223;-79
2021/04/04 09:33:00;;;;;;;16.88;1.80;;;18.20;42.70;;;;;;5009514;28;20170;-79
2021/04/04 09:35:33;;;;;;;22.27;2.22;;;18.30;42.60;;;;;;5027975;28;20163;-80
2021/04/04 09:38:35;;;;;;;15.88;2.00;;;18.30;42.60;;;;;;5028612;28;20258;-79
2021/04/04 09:41:10;;;;;;;14.68;1.63;;;18.30;42.50;;;;;;5028572;28;20166;-80
2021/04/04 09:44:03;;;;;;;21.73;1.88;;;18.20;42.60;;;;;;5011645;28;20186;-79
2021/04/04 09:46:31;;;;;;;14.93;1.60;;;18.30;42.60;;;;;;5007429;28;20183;-81
2021/04/04 09:48:59;;;;;;;10.85;1.92;;;18.30;42.70;;;;;;5012007;28;20166;-79
2021/04/04 09:51:26;;;;;;;14.57;1.60;;;18.30;42.50;;;;;;5029943;28;20191;-80
2021/04/04 09:53:53;;;;;;;11.40;1.50;;;18.30;42.60;;;;;;5015034;28;20159;-80
2021/04/04 09:56:31;;;;;;;10.43;1.48;;;18.40;42.50;;;;;;5034213;28;20166;-80
2021/04/04 09:58:58;;;;;;;12.68;1.85;;;18.30;42.70;;;;;;5014247;28;20159;-79
2021/04/04 10:01:26;;;;;;;9.40;1.50;;;18.40;42.70;;;;;;5011242;28;20168;-80
2021/04/04 10:03:55;;;;;;;12.48;1.20;;;18.40;42.50;;;;;;5014300;28;20159;-80
2021/04/04 10:06:22;;;;;;;13.30;1.77;;;18.40;42.50;;;;;;5030034;28;20167;-79
2021/04/04 10:08:59;;;;;;;17.77;2.20;;;18.40;42.60;;;;;;5012296;28;20167;-79
2021/04/04 10:11:28;;;;;;;15.13;1.55;;;18.40;42.60;;;;;;5011771;28;20227;-80
2021/04/04 10:14:14;;;;;;;18.65;1.85;;;18.40;42.80;;;;;;5028069;28;20147;-80
2021/04/04 10:16:41;;;;;;;9.07;1.45;;;18.40;42.80;;;;;;5031298;28;20148;-79
2021/04/04 10:19:20;;;;;;;28.23;2.58;;;18.40;42.60;;;;;;5030671;28;20151;-78
2021/04/04 10:21:57;;;;;;;25.08;2.33;;;18.40;42.80;;;;;;5030822;28;20607;-78
2021/04/04 10:24:39;;;;;;;13.60;2.10;;;18.40;42.80;;;;;;5030176;28;20640;-79
2021/04/04 10:27:30;;;;;;;21.45;2.00;;;18.40;43.00;;;;;;5016094;28;20223;-80
2021/04/04 10:30:11;;;;;;;24.45;2.20;;;18.50;43.00;;;;;;5030344;28;20309;-79
2021/04/04 10:32:56;;;;;;;24.23;2.20;;;18.50;42.90;;;;;;5032071;28;20210;-80
2021/04/04 10:35:30;;;;;;;17.02;1.85;;;18.50;42.90;;;;;;5015194;28;20159;-81
2021/04/04 10:38:13;;;;;;;23.60;2.35;;;18.40;42.80;;;;;;5030802;28;20171;-80
2021/04/04 10:40:55;;;;;;;21.83;2.03;;;18.40;42.80;;;;;;5032555;28;20191;-79
2021/04/04 10:44:01;;;;;;;18.25;1.95;;;18.40;42.80;;;;;;5032599;28;20182;-80
2021/04/04 10:46:57;;;;;;;26.23;2.78;;;18.40;42.90;;;;;;5034197;28;20175;-80
2021/04/04 10:49:44;;;;;;;25.52;2.10;;;18.40;42.90;;;;;;5035412;28;20155;-79
2021/04/04 10:52:34;;;;;;;18.23;2.10;;;18.50;42.90;;;;;;5018420;28;20191;-81
2021/04/04 10:55:19;;;;;;;23.90;2.42;;;18.50;42.70;;;;;;5031394;28;20171;-78
2021/04/04 10:58:06;;;;;;;9.85;2.00;;;18.60;42.50;;;;;;5021641;28;20171;-79
2021/04/04 11:00:52;;;;;;;17.00;2.20;;;18.50;42.70;;;;;;5022348;28;20666;-80
2021/04/04 11:03:23;;;;;;;22.00;2.38;;;18.50;42.70;;;;;;5023192;28;20191;-81
2021/04/04 11:05:58;;;;;;;19.85;2.17;;;18.50;42.50;;;;;;5010187;28;20190;-79
2021/04/04 11:08:25;;;;;;;14.70;2.05;;;18.50;42.60;;;;;;5005542;28;20171;-83
2021/04/04 11:10:52;;;;;;;23.38;2.33;;;18.50;42.50;;;;;;5011343;28;20326;-80
2021/04/04 11:13:20;;;;;;;16.33;1.80;;;18.60;42.60;;;;;;5014121;28;20235;-80
2021/04/04 11:16:06;;;;;;;23.83;3.00;;;18.50;42.60;;;;;;5017245;28;20163;-81
2021/04/04 11:18:50;;;;;;;13.27;1.92;;;18.60;42.70;;;;;;5017877;28;20199;-81
2021/04/04 11:21:28;;;;;;;13.80;1.70;;;18.50;42.90;;;;;;5015996;28;20162;-81
2021/04/04 11:23:55;;;;;;;20.02;2.58;;;18.50;42.80;;;;;;5031594;28;20252;-79
2021/04/04 11:26:32;;;;;;;15.07;1.88;;;18.60;42.80;;;;;;5031372;28;20156;-81
2021/04/04 11:29:17;;;;;;;15.85;1.70;;;18.60;42.80;;;;;;5029633;28;20152;-81
2021/04/04 11:31:51;;;;;;;13.18;2.15;;;18.70;42.30;;;;;;5011125;28;20257;-81
2021/04/04 11:34:35;;;;;;;13.75;1.90;;;18.70;42.50;;;;;;5034678;28;20152;-81
2021/04/04 11:37:26;;;;;;;15.45;1.85;;;18.70;42.50;;;;;;5031994;28;20215;-81
2021/04/04 11:40:25;;;;;;;20.38;1.73;;;18.60;42.90;;;;;;5034660;28;20186;-82
2021/04/04 11:43:11;;;;;;;14.45;2.25;;;18.60;42.90;;;;;;5034379;28;20163;-81
2021/04/04 11:45:38;;;;;;;17.17;1.90;;;18.60;42.60;;;;;;5034306;28;20159;-81
2021/04/04 11:48:36;;;;;;;18.05;1.80;;;18.70;42.60;;;;;;5032823;28;20155;-81
2021/04/04 11:51:30;;;;;;;12.23;1.80;;;18.60;42.60;;;;;;5033412;28;20258;-81
2021/04/04 11:53:57;;;;;;;18.67;1.90;;;18.60;42.60;;;;;;5015485;28;20172;-82
2021/04/04 11:56:51;;;;;;;18.70;2.22;;;18.70;42.60;;;;;;5033220;28;20223;-83
2021/04/04 11:59:18;;;;;;;23.63;2.03;;;18.70;42.50;;;;;;5029314;28;20183;-81
2021/04/04 12:01:46;;;;;;;13.57;1.65;;;18.70;42.40;;;;;;5016239;28;20174;-81
2021/04/04 12:04:47;;;;;;;13.70;1.75;;;18.80;42.30;;;;;;4997944;28;20206;-81
2021/04/04 12:07:17;;;;;;;17.45;1.90;;;18.80;42.30;;;;;;5030636;28;20198;-81
2021/04/04 12:09:45;;;;;;;12.65;2.03;;;18.70;42.30;;;;;;5012411;28;20191;-81
2021/04/04 12:12:12;;;;;;;8.98;1.60;;;18.70;42.40;;;;;;5030054;28;20155;-81
2021/04/04 12:14:55;;;;;;;13.98;1.83;;;18.70;42.30;;;;;;5029892;28;20187;-81
2021/04/04 12:17:29;;;;;;;8.50;1.65;;;18.80;42.20;;;;;;5029338;28;20232;-81
2021/04/04 12:20:05;;;;;;;11.68;1.73;;;18.80;42.10;;;;;;5012368;28;20170;-81
2021/04/04 12:22:34;;;;;;;7.13;1.42;;;18.80;42.10;;;;;;5029360;28;20178;-80
2021/04/04 12:25:01;;;;;;;14.30;1.60;;;18.80;42.10;;;;;;5029565;28;20167;-81
2021/04/04 12:27:28;;;;;;;12.68;2.28;;;18.80;42.00;;;;;;5012300;28;20162;-80
2021/04/04 12:29:55;;;;;;;10.15;1.92;;;18.80;42.10;;;;;;5011207;28;20191;-81
2021/04/04 12:32:23;;;;;;;10.60;1.67;;;18.80;42.20;;;;;;4992364;28;20172;-81
2021/04/04 12:34:51;;;;;;;10.00;1.60;;;18.80;42.20;;;;;;5009242;28;20161;-81
2021/04/04 12:37:21;;;;;;;8.25;1.60;;;18.70;42.20;;;;;;4993195;28;20152;-82
2021/04/04 12:39:58;;;;;;;13.05;1.92;;;18.80;42.20;;;;;;5010025;28;20176;-81
2021/04/04 12:42:32;;;;;;;7.07;1.33;;;18.80;42.10;;;;;;4994095;28;20164;-80
2021/04/04 12:45:08;;;;;;;10.48;1.52;;;18.80;42.10;;;;;;4976231;28;20192;-81
2021/04/04 12:47:35;;;;;;;9.98;1.60;;;18.80;42.10;;;;;;5009468;28;20160;-81
2021/04/04 12:50:08;;;;;;;10.52;1.95;;;18.80;42.10;;;;;;5010647;28;20194;-81
2021/04/04 12:52:45;;;;;;;14.40;1.55;;;18.90;42.00;;;;;;5010863;28;20160;-81
2021/04/04 12:55:16;;;;;;;8.00;1.40;;;18.90;42.10;;;;;;4994092;28;20152;-81
2021/04/04 12:57:57;;;;;;;9.75;1.60;;;18.80;42.10;;;;;;5011064;28;20144;-81
2021/04/04 13:00:32;;;;;;;7.93;1.52;;;18.90;42.10;;;;;;5010967;28;20184;-81
2021/04/04 13:03:11;;;;;;;6.88;1.58;;;18.90;42.10;;;;;;5009373;28;20160;-80
2021/04/04 13:05:57;;;;;;;1.70;1.00;;;18.90;42.00;;;;;;4990096;28;20239;-81
2021/04/04 13:08:34;;;;;;;10.45;1.77;;;18.80;42.10;;;;;;5008357;28;20156;-81
2021/04/04 13:11:09;;;;;;;9.85;1.60;;;18.90;42.10;;;;;;5007595;28;20192;-80
2021/04/04 13:13:47;;;;;;;8.73;1.80;;;19.00;41.90;;;;;;4990802;28;20171;-81
2021/04/04 13:16:15;;;;;;;9.25;1.52;;;19.00;41.80;;;;;;5007716;28;20164;-81
2021/04/04 13:18:45;;;;;;;16.27;1.48;;;19.00;41.70;;;;;;5008039;28;20180;-80
2021/04/04 13:21:19;;;;;;;5.72;1.10;;;19.00;41.80;;;;;;5008322;28;20172;-81
2021/04/04 13:23:49;;;;;;;7.65;1.58;;;18.90;41.90;;;;;;5007691;28;20155;-81
2021/04/04 13:26:24;;;;;;;9.30;2.05;;;18.90;41.90;;;;;;5007828;28;20252;-80